Terminal Aerodrome Forecast
Issued by NWS

Home | Current Version | Previous Version | Text Only | Print | Product List | Glossary On
Versions: 1 2 3 4 5 6 7 8 9 10 11 12 13 14 15
000
FTUS45 KABQ 281100 RRA
TAFSAF
TAF
KSAF 281141Z 2812/2912 01009KT P6SM SKC
     FM282000 28011G19KT P6SM SKC
     FM290200 33007KT P6SM SKC=

USA.gov is the U.S. government's official web portal to all federal, state and local government web resources and services.